sensor_id;sensor_type;location;lat;lon;timestamp;temperature;humidity
3298;DHT22;1661;53.572;10.174;2022-07-12T00:00:58;16.30;80.20
3298;DHT22;1661;53.572;10.174;2022-07-12T00:03:25;16.30;80.00
3298;DHT22;1661;53.572;10.174;2022-07-12T00:05:52;16.30;79.60
3298;DHT22;1661;53.572;10.174;2022-07-12T00:08:18;16.20;80.30
3298;DHT22;1661;53.572;10.174;2022-07-12T00:10:45;16.20;80.10
3298;DHT22;1661;53.572;10.174;2022-07-12T00:13:12;16.20;80.60
3298;DHT22;1661;53.572;10.174;2022-07-12T00:15:39;16.20;81.30
3298;DHT22;1661;53.572;10.174;2022-07-12T00:18:07;16.10;81.10
3298;DHT22;1661;53.572;10.174;2022-07-12T00:20:34;16.10;81.30
3298;DHT22;1661;53.572;10.174;2022-07-12T00:23:00;16.10;81.70
3298;DHT22;1661;53.572;10.174;2022-07-12T00:25:27;16.00;81.50
3298;DHT22;1661;53.572;10.174;2022-07-12T00:27:54;16.00;81.30
3298;DHT22;1661;53.572;10.174;2022-07-12T00:30:21;16.00;81.80
3298;DHT22;1661;53.572;10.174;2022-07-12T00:32:49;16.00;81.50
3298;DHT22;1661;53.572;10.174;2022-07-12T00:35:17;15.90;81.10
3298;DHT22;1661;53.572;10.174;2022-07-12T00:37:46;15.90;81.10
3298;DHT22;1661;53.572;10.174;2022-07-12T00:40:16;15.90;81.30
3298;DHT22;1661;53.572;10.174;2022-07-12T00:42:43;15.90;81.60
3298;DHT22;1661;53.572;10.174;2022-07-12T00:45:11;15.90;81.20
3298;DHT22;1661;53.572;10.174;2022-07-12T00:47:39;15.80;81.70
3298;DHT22;1661;53.572;10.174;2022-07-12T00:50:11;15.80;81.60
3298;DHT22;1661;53.572;10.174;2022-07-12T00:52:43;15.70;81.50
3298;DHT22;1661;53.572;10.174;2022-07-12T00:55:11;15.70;81.30
3298;DHT22;1661;53.572;10.174;2022-07-12T00:57:39;15.70;81.30
3298;DHT22;1661;53.572;10.174;2022-07-12T01:00:09;15.70;81.00
3298;DHT22;1661;53.572;10.174;2022-07-12T01:02:36;15.70;81.30
3298;DHT22;1661;53.572;10.174;2022-07-12T01:05:04;15.70;81.70
3298;DHT22;1661;53.572;10.174;2022-07-12T01:07:33;15.70;81.90
3298;DHT22;1661;53.572;10.174;2022-07-12T01:10:02;15.60;82.30
3298;DHT22;1661;53.572;10.174;2022-07-12T01:12:30;15.60;82.00
3298;DHT22;1661;53.572;10.174;2022-07-12T01:14:57;15.60;82.20
3298;DHT22;1661;53.572;10.174;2022-07-12T01:17:26;15.50;81.90
3298;DHT22;1661;53.572;10.174;2022-07-12T01:19:54;15.50;81.50
3298;DHT22;1661;53.572;10.174;2022-07-12T01:22:27;15.50;81.80
3298;DHT22;1661;53.572;10.174;2022-07-12T01:25:05;15.50;81.80
3298;DHT22;1661;53.572;10.174;2022-07-12T01:27:32;15.40;81.70
3298;DHT22;1661;53.572;10.174;2022-07-12T01:30:03;15.40;81.40
3298;DHT22;1661;53.572;10.174;2022-07-12T01:32:30;15.40;82.00
3298;DHT22;1661;53.572;10.174;2022-07-12T01:34:58;15.40;81.60
3298;DHT22;1661;53.572;10.174;2022-07-12T01:37:30;15.40;81.90
3298;DHT22;1661;53.572;10.174;2022-07-12T01:39:59;15.30;82.20
3298;DHT22;1661;53.572;10.174;2022-07-12T01:42:29;15.30;82.10
3298;DHT22;1661;53.572;10.174;2022-07-12T01:44:59;15.30;82.00
3298;DHT22;1661;53.572;10.174;2022-07-12T01:47:28;15.30;82.00
3298;DHT22;1661;53.572;10.174;2022-07-12T01:49:54;15.20;81.90
3298;DHT22;1661;53.572;10.174;2022-07-12T01:52:21;15.20;81.90
3298;DHT22;1661;53.572;10.174;2022-07-12T01:54:48;15.20;81.90
3298;DHT22;1661;53.572;10.174;2022-07-12T01:57:17;15.20;82.20
3298;DHT22;1661;53.572;10.174;2022-07-12T01:59:43;15.10;82.40
3298;DHT22;1661;53.572;10.174;2022-07-12T02:02:10;15.10;82.50
3298;DHT22;1661;53.572;10.174;2022-07-12T02:04:39;15.10;81.90
3298;DHT22;1661;53.572;10.174;2022-07-12T02:07:06;15.00;81.50
3298;DHT22;1661;53.572;10.174;2022-07-12T02:09:33;15.00;82.10
3298;DHT22;1661;53.572;10.174;2022-07-12T02:11:59;15.00;82.10
3298;DHT22;1661;53.572;10.174;2022-07-12T02:14:27;15.00;82.50
3298;DHT22;1661;53.572;10.174;2022-07-12T02:16:54;15.00;82.90
3298;DHT22;1661;53.572;10.174;2022-07-12T02:19:21;14.90;83.20
3298;DHT22;1661;53.572;10.174;2022-07-12T02:21:48;14.90;83.40
3298;DHT22;1661;53.572;10.174;2022-07-12T02:24:14;14.90;82.80
3298;DHT22;1661;53.572;10.174;2022-07-12T02:26:41;14.80;82.20
3298;DHT22;1661;53.572;10.174;2022-07-12T02:29:09;14.80;82.50
3298;DHT22;1661;53.572;10.174;2022-07-12T02:31:37;14.70;82.10
3298;DHT22;1661;53.572;10.174;2022-07-12T02:34:05;14.70;82.80
3298;DHT22;1661;53.572;10.174;2022-07-12T02:36:32;14.70;82.70
3298;DHT22;1661;53.572;10.174;2022-07-12T02:38:59;14.70;83.00
3298;DHT22;1661;53.572;10.174;2022-07-12T02:41:28;14.70;82.20
3298;DHT22;1661;53.572;10.174;2022-07-12T02:43:57;14.60;82.20
3298;DHT22;1661;53.572;10.174;2022-07-12T02:46:24;14.60;82.50
3298;DHT22;1661;53.572;10.174;2022-07-12T02:48:52;14.60;82.70
3298;DHT22;1661;53.572;10.174;2022-07-12T02:51:19;14.60;82.80
3298;DHT22;1661;53.572;10.174;2022-07-12T02:53:46;14.60;83.00
3298;DHT22;1661;53.572;10.174;2022-07-12T02:56:12;14.60;83.20
3298;DHT22;1661;53.572;10.174;2022-07-12T02:58:39;14.50;83.30
3298;DHT22;1661;53.572;10.174;2022-07-12T03:01:06;14.50;83.40
3298;DHT22;1661;53.572;10.174;2022-07-12T03:03:36;14.50;83.60
3298;DHT22;1661;53.572;10.174;2022-07-12T03:06:10;14.40;83.50
3298;DHT22;1661;53.572;10.174;2022-07-12T03:08:41;14.40;83.70
3298;DHT22;1661;53.572;10.174;2022-07-12T03:11:08;14.40;83.60
3298;DHT22;1661;53.572;10.174;2022-07-12T03:13:35;14.40;83.50
3298;DHT22;1661;53.572;10.174;2022-07-12T03:16:06;14.30;83.50
3298;DHT22;1661;53.572;10.174;2022-07-12T03:18:33;14.30;83.30
3298;DHT22;1661;53.572;10.174;2022-07-12T03:21:03;14.30;83.20
3298;DHT22;1661;53.572;10.174;2022-07-12T03:23:31;14.30;83.20
3298;DHT22;1661;53.572;10.174;2022-07-12T03:25:57;14.20;83.20
3298;DHT22;1661;53.572;10.174;2022-07-12T03:28:27;14.20;83.30
3298;DHT22;1661;53.572;10.174;2022-07-12T03:30:54;14.20;83.30
3298;DHT22;1661;53.572;10.174;2022-07-12T03:33:20;14.20;83.50
3298;DHT22;1661;53.572;10.174;2022-07-12T03:35:47;14.20;83.30
3298;DHT22;1661;53.572;10.174;2022-07-12T03:38:16;14.20;83.60
3298;DHT22;1661;53.572;10.174;2022-07-12T03:40:44;14.20;83.80
3298;DHT22;1661;53.572;10.174;2022-07-12T03:43:15;14.10;83.80
3298;DHT22;1661;53.572;10.174;2022-07-12T03:45:41;14.10;83.70
3298;DHT22;1661;53.572;10.174;2022-07-12T03:48:08;14.10;83.90
3298;DHT22;1661;53.572;10.174;2022-07-12T03:50:35;14.10;84.20
3298;DHT22;1661;53.572;10.174;2022-07-12T03:53:02;14.10;84.30
3298;DHT22;1661;53.572;10.174;2022-07-12T03:55:29;14.10;84.50
3298;DHT22;1661;53.572;10.174;2022-07-12T03:57:57;14.10;85.00
3298;DHT22;1661;53.572;10.174;2022-07-12T04:00:24;14.10;84.20
3298;DHT22;1661;53.572;10.174;2022-07-12T04:02:51;14.10;84.00
3298;DHT22;1661;53.572;10.174;2022-07-12T04:05:20;14.10;83.90
3298;DHT22;1661;53.572;10.174;2022-07-12T04:07:51;14.10;83.60
3298;DHT22;1661;53.572;10.174;2022-07-12T04:10:18;14.20;82.70
3298;DHT22;1661;53.572;10.174;2022-07-12T04:12:45;14.20;83.90
3298;DHT22;1661;53.572;10.174;2022-07-12T04:15:16;14.20;84.00
3298;DHT22;1661;53.572;10.174;2022-07-12T04:17:43;14.20;85.20
3298;DHT22;1661;53.572;10.174;2022-07-12T04:20:10;14.20;85.60
3298;DHT22;1661;53.572;10.174;2022-07-12T04:22:38;14.20;84.80
3298;DHT22;1661;53.572;10.174;2022-07-12T04:25:08;14.20;84.70
3298;DHT22;1661;53.572;10.174;2022-07-12T04:27:35;14.30;84.60
3298;DHT22;1661;53.572;10.174;2022-07-12T04:30:02;14.30;84.80
3298;DHT22;1661;53.572;10.174;2022-07-12T04:32:31;14.30;85.50
3298;DHT22;1661;53.572;10.174;2022-07-12T04:34:57;14.40;84.90
3298;DHT22;1661;53.572;10.174;2022-07-12T04:37:24;14.40;84.00
3298;DHT22;1661;53.572;10.174;2022-07-12T04:39:51;14.40;83.50
3298;DHT22;1661;53.572;10.174;2022-07-12T04:42:18;14.50;85.00
3298;DHT22;1661;53.572;10.174;2022-07-12T04:44:44;14.50;86.30
3298;DHT22;1661;53.572;10.174;2022-07-12T04:47:16;14.50;86.80
3298;DHT22;1661;53.572;10.174;2022-07-12T04:49:44;14.50;86.10
3298;DHT22;1661;53.572;10.174;2022-07-12T04:52:11;14.60;86.80
3298;DHT22;1661;53.572;10.174;2022-07-12T04:54:38;14.60;86.70
3298;DHT22;1661;53.572;10.174;2022-07-12T04:57:05;14.60;87.50
3298;DHT22;1661;53.572;10.174;2022-07-12T04:59:31;14.60;86.70
3298;DHT22;1661;53.572;10.174;2022-07-12T05:01:58;14.70;87.60
3298;DHT22;1661;53.572;10.174;2022-07-12T05:04:25;14.70;88.30
3298;DHT22;1661;53.572;10.174;2022-07-12T05:06:53;14.70;88.70
3298;DHT22;1661;53.572;10.174;2022-07-12T05:09:22;14.70;87.60
3298;DHT22;1661;53.572;10.174;2022-07-12T05:11:49;14.70;85.90
3298;DHT22;1661;53.572;10.174;2022-07-12T05:14:19;14.80;86.00
3298;DHT22;1661;53.572;10.174;2022-07-12T05:16:45;14.90;87.70
3298;DHT22;1661;53.572;10.174;2022-07-12T05:19:14;15.00;88.90
3298;DHT22;1661;53.572;10.174;2022-07-12T05:21:42;15.00;89.30
3298;DHT22;1661;53.572;10.174;2022-07-12T05:24:13;15.10;90.60
3298;DHT22;1661;53.572;10.174;2022-07-12T05:26:40;15.20;91.50
3298;DHT22;1661;53.572;10.174;2022-07-12T05:29:06;15.20;91.80
3298;DHT22;1661;53.572;10.174;2022-07-12T05:31:33;15.30;92.00
3298;DHT22;1661;53.572;10.174;2022-07-12T05:34:00;15.40;91.90
3298;DHT22;1661;53.572;10.174;2022-07-12T05:36:27;15.40;91.80
3298;DHT22;1661;53.572;10.174;2022-07-12T05:38:54;15.50;91.60
3298;DHT22;1661;53.572;10.174;2022-07-12T05:41:22;15.60;91.50
3298;DHT22;1661;53.572;10.174;2022-07-12T05:43:49;15.60;91.50
3298;DHT22;1661;53.572;10.174;2022-07-12T05:46:18;15.70;91.50
3298;DHT22;1661;53.572;10.174;2022-07-12T05:48:45;15.80;91.40
3298;DHT22;1661;53.572;10.174;2022-07-12T05:51:12;15.90;91.00
3298;DHT22;1661;53.572;10.174;2022-07-12T05:53:56;15.90;90.50
3298;DHT22;1661;53.572;10.174;2022-07-12T05:56:24;16.00;90.00
3298;DHT22;1661;53.572;10.174;2022-07-12T05:58:51;16.10;89.90
3298;DHT22;1661;53.572;10.174;2022-07-12T06:01:18;16.30;89.70
3298;DHT22;1661;53.572;10.174;2022-07-12T06:03:49;16.30;88.90
3298;DHT22;1661;53.572;10.174;2022-07-12T06:06:16;16.50;88.60
3298;DHT22;1661;53.572;10.174;2022-07-12T06:08:43;16.60;88.40
3298;DHT22;1661;53.572;10.174;2022-07-12T06:11:10;16.70;87.40
3298;DHT22;1661;53.572;10.174;2022-07-12T06:13:39;16.80;86.70
3298;DHT22;1661;53.572;10.174;2022-07-12T06:16:06;17.00;86.30
3298;DHT22;1661;53.572;10.174;2022-07-12T06:18:34;17.10;85.60
3298;DHT22;1661;53.572;10.174;2022-07-12T06:21:01;17.30;85.50
3298;DHT22;1661;53.572;10.174;2022-07-12T06:23:27;17.40;84.40
3298;DHT22;1661;53.572;10.174;2022-07-12T06:25:54;17.60;83.60
3298;DHT22;1661;53.572;10.174;2022-07-12T06:28:21;17.70;83.30
3298;DHT22;1661;53.572;10.174;2022-07-12T06:30:49;17.90;82.80
3298;DHT22;1661;53.572;10.174;2022-07-12T06:33:16;18.00;82.20
3298;DHT22;1661;53.572;10.174;2022-07-12T06:35:43;18.10;81.50
3298;DHT22;1661;53.572;10.174;2022-07-12T06:38:09;18.10;80.30
3298;DHT22;1661;53.572;10.174;2022-07-12T06:40:36;18.10;80.30
3298;DHT22;1661;53.572;10.174;2022-07-12T06:43:08;18.20;80.30
3298;DHT22;1661;53.572;10.174;2022-07-12T06:45:35;18.10;80.50
3298;DHT22;1661;53.572;10.174;2022-07-12T06:48:03;18.20;80.40
3298;DHT22;1661;53.572;10.174;2022-07-12T06:50:30;18.40;80.60
3298;DHT22;1661;53.572;10.174;2022-07-12T06:52:57;18.50;79.70
3298;DHT22;1661;53.572;10.174;2022-07-12T06:55:24;18.50;78.30
3298;DHT22;1661;53.572;10.174;2022-07-12T06:57:51;18.40;79.00
3298;DHT22;1661;53.572;10.174;2022-07-12T07:00:18;18.50;79.10
3298;DHT22;1661;53.572;10.174;2022-07-12T07:02:45;18.70;79.30
3298;DHT22;1661;53.572;10.174;2022-07-12T07:05:14;18.90;79.30
3298;DHT22;1661;53.572;10.174;2022-07-12T07:07:41;19.00;78.50
3298;DHT22;1661;53.572;10.174;2022-07-12T07:10:08;18.90;77.40
3298;DHT22;1661;53.572;10.174;2022-07-12T07:12:35;18.90;77.80
3298;DHT22;1661;53.572;10.174;2022-07-12T07:15:02;19.00;77.20
3298;DHT22;1661;53.572;10.174;2022-07-12T07:17:28;19.10;77.50
3298;DHT22;1661;53.572;10.174;2022-07-12T07:19:58;19.30;77.30
3298;DHT22;1661;53.572;10.174;2022-07-12T07:22:26;19.30;76.30
3298;DHT22;1661;53.572;10.174;2022-07-12T07:24:54;19.30;75.40
3298;DHT22;1661;53.572;10.174;2022-07-12T07:27:20;19.40;75.40
3298;DHT22;1661;53.572;10.174;2022-07-12T07:29:50;19.50;75.40
3298;DHT22;1661;53.572;10.174;2022-07-12T07:32:34;19.60;75.10
3298;DHT22;1661;53.572;10.174;2022-07-12T07:35:01;19.80;74.20
3298;DHT22;1661;53.572;10.174;2022-07-12T07:37:31;19.90;73.00
3298;DHT22;1661;53.572;10.174;2022-07-12T07:39:58;20.00;73.10
3298;DHT22;1661;53.572;10.174;2022-07-12T07:42:24;20.10;72.50
3298;DHT22;1661;53.572;10.174;2022-07-12T07:44:51;20.20;72.40
3298;DHT22;1661;53.572;10.174;2022-07-12T07:47:20;20.30;72.00
3298;DHT22;1661;53.572;10.174;2022-07-12T07:49:47;20.40;71.70
3298;DHT22;1661;53.572;10.174;2022-07-12T07:52:14;20.50;71.50
3298;DHT22;1661;53.572;10.174;2022-07-12T07:54:42;20.60;71.90
3298;DHT22;1661;53.572;10.174;2022-07-12T07:57:08;20.80;71.60
3298;DHT22;1661;53.572;10.174;2022-07-12T07:59:35;20.80;70.90
3298;DHT22;1661;53.572;10.174;2022-07-12T08:02:05;20.80;70.90
3298;DHT22;1661;53.572;10.174;2022-07-12T08:04:35;20.90;70.60
3298;DHT22;1661;53.572;10.174;2022-07-12T08:07:01;21.00;70.30
3298;DHT22;1661;53.572;10.174;2022-07-12T08:09:31;21.20;69.40
3298;DHT22;1661;53.572;10.174;2022-07-12T08:11:59;21.30;68.70
3298;DHT22;1661;53.572;10.174;2022-07-12T08:14:25;21.30;69.00
3298;DHT22;1661;53.572;10.174;2022-07-12T08:16:55;21.50;69.00
3298;DHT22;1661;53.572;10.174;2022-07-12T08:19:24;21.70;68.40
3298;DHT22;1661;53.572;10.174;2022-07-12T08:21:51;21.80;67.80
3298;DHT22;1661;53.572;10.174;2022-07-12T08:24:17;21.90;68.00
3298;DHT22;1661;53.572;10.174;2022-07-12T08:26:44;22.10;67.90
3298;DHT22;1661;53.572;10.174;2022-07-12T08:29:12;22.20;67.60
3298;DHT22;1661;53.572;10.174;2022-07-12T08:31:39;22.20;66.50
3298;DHT22;1661;53.572;10.174;2022-07-12T08:34:06;22.40;66.30
3298;DHT22;1661;53.572;10.174;2022-07-12T08:36:33;22.40;65.70
3298;DHT22;1661;53.572;10.174;2022-07-12T08:39:00;22.50;65.10
3298;DHT22;1661;53.572;10.174;2022-07-12T08:41:27;22.60;64.20
3298;DHT22;1661;53.572;10.174;2022-07-12T08:43:55;22.60;64.40
3298;DHT22;1661;53.572;10.174;2022-07-12T08:46:25;22.60;63.90
3298;DHT22;1661;53.572;10.174;2022-07-12T08:48:52;22.70;64.40
3298;DHT22;1661;53.572;10.174;2022-07-12T08:51:20;22.70;64.90
3298;DHT22;1661;53.572;10.174;2022-07-12T08:53:49;22.90;65.60
3298;DHT22;1661;53.572;10.174;2022-07-12T08:56:31;23.00;64.70
3298;DHT22;1661;53.572;10.174;2022-07-12T08:59:09;23.20;63.80
3298;DHT22;1661;53.572;10.174;2022-07-12T09:01:42;23.50;63.30
3298;DHT22;1661;53.572;10.174;2022-07-12T09:04:10;23.70;62.90
3298;DHT22;1661;53.572;10.174;2022-07-12T09:06:36;23.90;62.40
3298;DHT22;1661;53.572;10.174;2022-07-12T09:09:03;23.90;61.20
3298;DHT22;1661;53.572;10.174;2022-07-12T09:11:30;24.10;61.40
3298;DHT22;1661;53.572;10.174;2022-07-12T09:13:57;24.30;61.40
3298;DHT22;1661;53.572;10.174;2022-07-12T09:16:25;24.40;60.80
3298;DHT22;1661;53.572;10.174;2022-07-12T09:19:12;24.30;60.00
3298;DHT22;1661;53.572;10.174;2022-07-12T09:21:46;24.30;61.00
3298;DHT22;1661;53.572;10.174;2022-07-12T09:24:14;24.40;60.90
3298;DHT22;1661;53.572;10.174;2022-07-12T09:26:43;24.60;60.90
3298;DHT22;1661;53.572;10.174;2022-07-12T09:29:13;24.70;59.80
3298;DHT22;1661;53.572;10.174;2022-07-12T09:31:42;24.80;59.20
3298;DHT22;1661;53.572;10.174;2022-07-12T09:34:27;25.00;59.80
3298;DHT22;1661;53.572;10.174;2022-07-12T09:37:11;24.60;59.30
3298;DHT22;1661;53.572;10.174;2022-07-12T09:39:39;24.30;60.40
3298;DHT22;1661;53.572;10.174;2022-07-12T09:42:11;23.90;61.80
3298;DHT22;1661;53.572;10.174;2022-07-12T09:44:38;24.00;61.90
3298;DHT22;1661;53.572;10.174;2022-07-12T09:47:09;24.20;61.10
3298;DHT22;1661;53.572;10.174;2022-07-12T09:49:39;24.10;60.70
3298;DHT22;1661;53.572;10.174;2022-07-12T09:52:11;24.20;61.20
3298;DHT22;1661;53.572;10.174;2022-07-12T09:54:40;24.50;60.80
3298;DHT22;1661;53.572;10.174;2022-07-12T09:57:16;24.80;60.80
3298;DHT22;1661;53.572;10.174;2022-07-12T09:59:45;24.90;58.30
3298;DHT22;1661;53.572;10.174;2022-07-12T10:02:14;25.10;58.60
3298;DHT22;1661;53.572;10.174;2022-07-12T10:04:43;25.40;58.90
3298;DHT22;1661;53.572;10.174;2022-07-12T10:07:10;25.70;57.80
3298;DHT22;1661;53.572;10.174;2022-07-12T10:09:41;25.90;55.70
3298;DHT22;1661;53.572;10.174;2022-07-12T10:12:10;26.20;55.40
3298;DHT22;1661;53.572;10.174;2022-07-12T10:14:38;26.40;55.00
3298;DHT22;1661;53.572;10.174;2022-07-12T10:17:06;26.60;54.30
3298;DHT22;1661;53.572;10.174;2022-07-12T10:19:37;26.70;54.30
3298;DHT22;1661;53.572;10.174;2022-07-12T10:22:18;26.90;54.40
3298;DHT22;1661;53.572;10.174;2022-07-12T10:24:49;27.00;53.30
3298;DHT22;1661;53.572;10.174;2022-07-12T10:27:31;27.30;53.50
3298;DHT22;1661;53.572;10.174;2022-07-12T10:30:15;27.40;53.00
3298;DHT22;1661;53.572;10.174;2022-07-12T10:32:44;27.60;52.50
3298;DHT22;1661;53.572;10.174;2022-07-12T10:35:18;27.70;51.10
3298;DHT22;1661;53.572;10.174;2022-07-12T10:38:14;27.90;51.10
3298;DHT22;1661;53.572;10.174;2022-07-12T10:40:42;28.00;52.40
3298;DHT22;1661;53.572;10.174;2022-07-12T10:43:21;28.20;51.40
3298;DHT22;1661;53.572;10.174;2022-07-12T10:46:17;28.40;51.60
3298;DHT22;1661;53.572;10.174;2022-07-12T10:48:45;28.40;50.80
3298;DHT22;1661;53.572;10.174;2022-07-12T10:51:14;28.30;50.90
3298;DHT22;1661;53.572;10.174;2022-07-12T10:53:48;28.30;50.50
3298;DHT22;1661;53.572;10.174;2022-07-12T10:56:18;28.40;50.60
3298;DHT22;1661;53.572;10.174;2022-07-12T10:58:47;28.60;51.30
3298;DHT22;1661;53.572;10.174;2022-07-12T11:01:16;28.70;50.60
3298;DHT22;1661;53.572;10.174;2022-07-12T11:03:45;28.90;49.50
3298;DHT22;1661;53.572;10.174;2022-07-12T11:06:13;28.60;47.90
3298;DHT22;1661;53.572;10.174;2022-07-12T11:08:56;28.30;51.20
3298;DHT22;1661;53.572;10.174;2022-07-12T11:11:26;28.50;49.00
3298;DHT22;1661;53.572;10.174;2022-07-12T11:13:53;28.60;49.30
3298;DHT22;1661;53.572;10.174;2022-07-12T11:16:20;28.70;50.10
3298;DHT22;1661;53.572;10.174;2022-07-12T11:18:47;28.90;49.90
3298;DHT22;1661;53.572;10.174;2022-07-12T11:21:17;29.10;51.10
3298;DHT22;1661;53.572;10.174;2022-07-12T11:23:44;29.30;50.90
3298;DHT22;1661;53.572;10.174;2022-07-12T11:26:15;29.20;49.60
3298;DHT22;1661;53.572;10.174;2022-07-12T11:28:44;28.90;49.40
3298;DHT22;1661;53.572;10.174;2022-07-12T11:31:12;28.30;51.10
3298;DHT22;1661;53.572;10.174;2022-07-12T11:33:44;28.40;53.20
3298;DHT22;1661;53.572;10.174;2022-07-12T11:36:11;28.60;52.70
3298;DHT22;1661;53.572;10.174;2022-07-12T11:38:42;28.80;50.00
3298;DHT22;1661;53.572;10.174;2022-07-12T11:41:09;28.80;50.40
3298;DHT22;1661;53.572;10.174;2022-07-12T11:43:39;28.60;51.80
3298;DHT22;1661;53.572;10.174;2022-07-12T11:46:06;28.80;51.40
3298;DHT22;1661;53.572;10.174;2022-07-12T11:48:35;29.00;49.80
3298;DHT22;1661;53.572;10.174;2022-07-12T11:51:03;29.30;49.60
3298;DHT22;1661;53.572;10.174;2022-07-12T11:53:31;29.60;48.40
3298;DHT22;1661;53.572;10.174;2022-07-12T11:56:00;29.90;48.20
3298;DHT22;1661;53.572;10.174;2022-07-12T11:58:28;30.20;48.00
3298;DHT22;1661;53.572;10.174;2022-07-12T12:00:56;29.90;48.60
3298;DHT22;1661;53.572;10.174;2022-07-12T12:03:24;29.80;47.40
3298;DHT22;1661;53.572;10.174;2022-07-12T12:05:51;30.00;51.10
3298;DHT22;1661;53.572;10.174;2022-07-12T12:08:19;30.10;49.60
3298;DHT22;1661;53.572;10.174;2022-07-12T12:10:53;30.20;48.30
3298;DHT22;1661;53.572;10.174;2022-07-12T12:13:24;30.30;49.40
3298;DHT22;1661;53.572;10.174;2022-07-12T12:15:52;30.20;48.60
3298;DHT22;1661;53.572;10.174;2022-07-12T12:18:32;30.20;48.00
3298;DHT22;1661;53.572;10.174;2022-07-12T12:21:01;29.90;49.00
3298;DHT22;1661;53.572;10.174;2022-07-12T12:23:28;29.50;50.20
3298;DHT22;1661;53.572;10.174;2022-07-12T12:26:15;29.60;49.30
3298;DHT22;1661;53.572;10.174;2022-07-12T12:28:43;29.90;49.40
3298;DHT22;1661;53.572;10.174;2022-07-12T12:31:11;30.20;50.10
3298;DHT22;1661;53.572;10.174;2022-07-12T12:33:41;30.40;49.60
3298;DHT22;1661;53.572;10.174;2022-07-12T12:36:13;30.30;50.40
3298;DHT22;1661;53.572;10.174;2022-07-12T12:38:40;30.10;49.00
3298;DHT22;1661;53.572;10.174;2022-07-12T12:41:10;30.30;51.00
3298;DHT22;1661;53.572;10.174;2022-07-12T12:43:38;30.60;48.60
3298;DHT22;1661;53.572;10.174;2022-07-12T12:46:05;30.30;47.50
3298;DHT22;1661;53.572;10.174;2022-07-12T12:48:33;30.30;47.60
3298;DHT22;1661;53.572;10.174;2022-07-12T12:51:06;30.40;47.60
3298;DHT22;1661;53.572;10.174;2022-07-12T12:53:34;30.60;47.90
3298;DHT22;1661;53.572;10.174;2022-07-12T12:56:05;30.90;48.30
3298;DHT22;1661;53.572;10.174;2022-07-12T12:58:32;31.00;47.50
3298;DHT22;1661;53.572;10.174;2022-07-12T13:00:59;31.20;47.30
3298;DHT22;1661;53.572;10.174;2022-07-12T13:03:25;31.40;47.00
3298;DHT22;1661;53.572;10.174;2022-07-12T13:05:55;31.50;46.90
3298;DHT22;1661;53.572;10.174;2022-07-12T13:08:24;31.70;46.70
3298;DHT22;1661;53.572;10.174;2022-07-12T13:10:53;31.90;47.10
3298;DHT22;1661;53.572;10.174;2022-07-12T13:13:34;31.80;46.40
3298;DHT22;1661;53.572;10.174;2022-07-12T13:16:01;31.80;47.80
3298;DHT22;1661;53.572;10.174;2022-07-12T13:18:28;31.80;46.40
3298;DHT22;1661;53.572;10.174;2022-07-12T13:20:55;31.80;44.30
3298;DHT22;1661;53.572;10.174;2022-07-12T13:23:22;31.90;45.70
3298;DHT22;1661;53.572;10.174;2022-07-12T13:25:50;32.10;46.30
3298;DHT22;1661;53.572;10.174;2022-07-12T13:28:19;32.30;44.70
3298;DHT22;1661;53.572;10.174;2022-07-12T13:30:45;32.30;45.20
3298;DHT22;1661;53.572;10.174;2022-07-12T13:33:12;31.90;45.90
3298;DHT22;1661;53.572;10.174;2022-07-12T13:35:41;31.80;45.70
3298;DHT22;1661;53.572;10.174;2022-07-12T13:38:10;31.80;47.70
3298;DHT22;1661;53.572;10.174;2022-07-12T13:40:41;31.30;46.60
3298;DHT22;1661;53.572;10.174;2022-07-12T13:43:09;31.10;48.10
3298;DHT22;1661;53.572;10.174;2022-07-12T13:45:36;31.00;47.20
3298;DHT22;1661;53.572;10.174;2022-07-12T13:48:12;30.30;48.50
3298;DHT22;1661;53.572;10.174;2022-07-12T13:50:39;30.00;48.50
3298;DHT22;1661;53.572;10.174;2022-07-12T13:53:06;30.10;49.10
3298;DHT22;1661;53.572;10.174;2022-07-12T13:55:36;30.10;49.30
3298;DHT22;1661;53.572;10.174;2022-07-12T13:58:06;30.00;51.40
3298;DHT22;1661;53.572;10.174;2022-07-12T14:00:34;30.30;51.20
3298;DHT22;1661;53.572;10.174;2022-07-12T14:03:02;30.70;51.10
3298;DHT22;1661;53.572;10.174;2022-07-12T14:05:28;31.00;47.00
3298;DHT22;1661;53.572;10.174;2022-07-12T14:07:56;31.30;46.70
3298;DHT22;1661;53.572;10.174;2022-07-12T14:10:23;31.50;46.10
3298;DHT22;1661;53.572;10.174;2022-07-12T14:12:50;31.60;46.40
3298;DHT22;1661;53.572;10.174;2022-07-12T14:15:17;31.80;45.40
3298;DHT22;1661;53.572;10.174;2022-07-12T14:18:03;31.70;46.00
3298;DHT22;1661;53.572;10.174;2022-07-12T14:20:31;31.60;46.70
3298;DHT22;1661;53.572;10.174;2022-07-12T14:22:58;31.80;46.30
3298;DHT22;1661;53.572;10.174;2022-07-12T14:25:28;32.00;45.60
3298;DHT22;1661;53.572;10.174;2022-07-12T14:27:55;31.80;44.60
3298;DHT22;1661;53.572;10.174;2022-07-12T14:30:22;31.40;44.80
3298;DHT22;1661;53.572;10.174;2022-07-12T14:32:49;31.50;46.60
3298;DHT22;1661;53.572;10.174;2022-07-12T14:35:18;31.70;44.80
3298;DHT22;1661;53.572;10.174;2022-07-12T14:37:44;31.90;46.40
3298;DHT22;1661;53.572;10.174;2022-07-12T14:40:11;32.10;46.00
3298;DHT22;1661;53.572;10.174;2022-07-12T14:42:38;32.10;48.70
3298;DHT22;1661;53.572;10.174;2022-07-12T14:45:06;32.00;47.40
3298;DHT22;1661;53.572;10.174;2022-07-12T14:47:33;32.20;46.10
3298;DHT22;1661;53.572;10.174;2022-07-12T14:50:03;32.30;45.40
3298;DHT22;1661;53.572;10.174;2022-07-12T14:52:36;32.50;46.50
3298;DHT22;1661;53.572;10.174;2022-07-12T14:55:07;32.20;45.00
3298;DHT22;1661;53.572;10.174;2022-07-12T14:57:34;32.40;45.10
3298;DHT22;1661;53.572;10.174;2022-07-12T15:00:02;32.20;45.30
3298;DHT22;1661;53.572;10.174;2022-07-12T15:02:30;32.30;44.20
3298;DHT22;1661;53.572;10.174;2022-07-12T15:04:56;32.40;43.40
3298;DHT22;1661;53.572;10.174;2022-07-12T15:07:28;32.30;43.10
3298;DHT22;1661;53.572;10.174;2022-07-12T15:09:56;32.30;45.20
3298;DHT22;1661;53.572;10.174;2022-07-12T15:12:23;32.20;42.70
3298;DHT22;1661;53.572;10.174;2022-07-12T15:14:50;32.30;44.40
3298;DHT22;1661;53.572;10.174;2022-07-12T15:17:17;32.40;43.60
3298;DHT22;1661;53.572;10.174;2022-07-12T15:19:44;32.50;43.30
3298;DHT22;1661;53.572;10.174;2022-07-12T15:22:11;32.50;42.90
3298;DHT22;1661;53.572;10.174;2022-07-12T15:24:41;32.50;44.40
3298;DHT22;1661;53.572;10.174;2022-07-12T15:27:10;32.40;44.10
3298;DHT22;1661;53.572;10.174;2022-07-12T15:29:37;32.20;46.60
3298;DHT22;1661;53.572;10.174;2022-07-12T15:32:06;32.20;44.60
3298;DHT22;1661;53.572;10.174;2022-07-12T15:34:33;32.30;45.00
3298;DHT22;1661;53.572;10.174;2022-07-12T15:36:59;32.30;45.50
3298;DHT22;1661;53.572;10.174;2022-07-12T15:39:26;32.30;45.90
3298;DHT22;1661;53.572;10.174;2022-07-12T15:41:53;32.30;43.80
3298;DHT22;1661;53.572;10.174;2022-07-12T15:44:21;31.90;42.70
3298;DHT22;1661;53.572;10.174;2022-07-12T15:46:48;31.90;45.10
3298;DHT22;1661;53.572;10.174;2022-07-12T15:49:15;31.40;45.60
3298;DHT22;1661;53.572;10.174;2022-07-12T15:51:44;31.10;46.30
3298;DHT22;1661;53.572;10.174;2022-07-12T15:54:29;31.00;44.90